sensor_id;sensor_type;location;lat;lon;timestamp;P1;durP1;ratioP1;P2;durP2;ratioP2
30299;SDS011;17110;52.602;12.998;2023-04-29T00:01:53;13.10;;;11.77;;
30299;SDS011;17110;52.602;12.998;2023-04-29T00:04:18;12.88;;;11.52;;
30299;SDS011;17110;52.602;12.998;2023-04-29T00:06:44;11.38;;;10.48;;
30299;SDS011;17110;52.602;12.998;2023-04-29T00:09:10;12.38;;;11.27;;
30299;SDS011;17110;52.602;12.998;2023-04-29T00:11:37;12.25;;;11.15;;
30299;SDS011;17110;52.602;12.998;2023-04-29T00:14:03;12.43;;;11.20;;
30299;SDS011;17110;52.602;12.998;2023-04-29T00:16:29;12.93;;;11.82;;
30299;SDS011;17110;52.602;12.998;2023-04-29T00:18:55;12.18;;;11.15;;
30299;SDS011;17110;52.602;12.998;2023-04-29T00:21:20;12.35;;;11.25;;
30299;SDS011;17110;52.602;12.998;2023-04-29T00:23:46;12.95;;;11.55;;
30299;SDS011;17110;52.602;12.998;2023-04-29T00:26:12;12.15;;;11.05;;
30299;SDS011;17110;52.602;12.998;2023-04-29T00:28:44;12.57;;;11.38;;
30299;SDS011;17110;52.602;12.998;2023-04-29T00:31:10;12.32;;;11.13;;
30299;SDS011;17110;52.602;12.998;2023-04-29T00:33:36;12.88;;;11.30;;
30299;SDS011;17110;52.602;12.998;2023-04-29T00:36:02;11.45;;;10.25;;
30299;SDS011;17110;52.602;12.998;2023-04-29T00:38:28;12.20;;;11.02;;
30299;SDS011;17110;52.602;12.998;2023-04-29T00:40:54;12.95;;;11.65;;
30299;SDS011;17110;52.602;12.998;2023-04-29T00:43:20;13.25;;;11.98;;
30299;SDS011;17110;52.602;12.998;2023-04-29T00:45:47;12.80;;;11.70;;
30299;SDS011;17110;52.602;12.998;2023-04-29T00:48:13;13.35;;;11.40;;
30299;SDS011;17110;52.602;12.998;2023-04-29T00:50:39;12.38;;;11.18;;
30299;SDS011;17110;52.602;12.998;2023-04-29T00:53:05;13.10;;;11.80;;
30299;SDS011;17110;52.602;12.998;2023-04-29T00:55:31;13.93;;;12.52;;
30299;SDS011;17110;52.602;12.998;2023-04-29T00:57:58;13.02;;;11.82;;
30299;SDS011;17110;52.602;12.998;2023-04-29T01:00:24;13.80;;;12.60;;
30299;SDS011;17110;52.602;12.998;2023-04-29T01:02:54;14.18;;;12.93;;
30299;SDS011;17110;52.602;12.998;2023-04-29T01:05:21;14.05;;;12.70;;
30299;SDS011;17110;52.602;12.998;2023-04-29T01:07:49;14.30;;;12.90;;
30299;SDS011;17110;52.602;12.998;2023-04-29T01:10:21;13.85;;;12.65;;
30299;SDS011;17110;52.602;12.998;2023-04-29T01:12:53;14.05;;;12.65;;
30299;SDS011;17110;52.602;12.998;2023-04-29T01:15:29;15.10;;;13.52;;
30299;SDS011;17110;52.602;12.998;2023-04-29T01:32:49;18.13;;;16.52;;
30299;SDS011;17110;52.602;12.998;2023-04-29T01:35:29;17.87;;;16.30;;
30299;SDS011;17110;52.602;12.998;2023-04-29T01:38:04;18.23;;;16.63;;
30299;SDS011;17110;52.602;12.998;2023-04-29T01:40:42;18.40;;;16.90;;
30299;SDS011;17110;52.602;12.998;2023-04-29T01:43:19;18.13;;;16.50;;
30299;SDS011;17110;52.602;12.998;2023-04-29T01:45:48;17.85;;;16.25;;
30299;SDS011;17110;52.602;12.998;2023-04-29T01:54:11;19.88;;;18.10;;
30299;SDS011;17110;52.602;12.998;2023-04-29T01:56:39;19.25;;;17.65;;
30299;SDS011;17110;52.602;12.998;2023-04-29T01:59:21;20.17;;;18.52;;
30299;SDS011;17110;52.602;12.998;2023-04-29T02:02:09;20.02;;;18.35;;
30299;SDS011;17110;52.602;12.998;2023-04-29T02:04:40;21.40;;;19.63;;
30299;SDS011;17110;52.602;12.998;2023-04-29T02:07:06;21.17;;;19.25;;
30299;SDS011;17110;52.602;12.998;2023-04-29T02:09:33;21.35;;;19.50;;
30299;SDS011;17110;52.602;12.998;2023-04-29T02:12:06;21.25;;;19.30;;
30299;SDS011;17110;52.602;12.998;2023-04-29T02:14:32;22.83;;;20.92;;
30299;SDS011;17110;52.602;12.998;2023-04-29T02:16:58;24.40;;;22.13;;
30299;SDS011;17110;52.602;12.998;2023-04-29T02:19:24;20.40;;;18.63;;
30299;SDS011;17110;52.602;12.998;2023-04-29T02:21:52;22.27;;;20.25;;
30299;SDS011;17110;52.602;12.998;2023-04-29T02:24:19;24.75;;;22.75;;
30299;SDS011;17110;52.602;12.998;2023-04-29T02:26:48;22.05;;;19.98;;
30299;SDS011;17110;52.602;12.998;2023-04-29T02:29:13;22.17;;;20.27;;
30299;SDS011;17110;52.602;12.998;2023-04-29T02:31:43;23.50;;;21.40;;
30299;SDS011;17110;52.602;12.998;2023-04-29T02:34:08;26.00;;;23.70;;
30299;SDS011;17110;52.602;12.998;2023-04-29T02:36:34;27.02;;;24.70;;
30299;SDS011;17110;52.602;12.998;2023-04-29T02:39:00;26.90;;;24.58;;
30299;SDS011;17110;52.602;12.998;2023-04-29T02:41:26;25.27;;;23.02;;
30299;SDS011;17110;52.602;12.998;2023-04-29T02:43:53;24.65;;;22.52;;
30299;SDS011;17110;52.602;12.998;2023-04-29T02:46:19;29.30;;;26.77;;
30299;SDS011;17110;52.602;12.998;2023-04-29T02:48:45;27.38;;;24.98;;
30299;SDS011;17110;52.602;12.998;2023-04-29T02:51:11;28.98;;;26.63;;
30299;SDS011;17110;52.602;12.998;2023-04-29T02:53:37;27.85;;;25.60;;
30299;SDS011;17110;52.602;12.998;2023-04-29T02:56:03;28.20;;;25.67;;
30299;SDS011;17110;52.602;12.998;2023-04-29T02:58:29;30.35;;;27.60;;
30299;SDS011;17110;52.602;12.998;2023-04-29T03:03:53;31.92;;;29.05;;
30299;SDS011;17110;52.602;12.998;2023-04-29T03:06:18;33.40;;;30.50;;
30299;SDS011;17110;52.602;12.998;2023-04-29T03:08:44;30.67;;;28.10;;
30299;SDS011;17110;52.602;12.998;2023-04-29T03:11:10;31.70;;;28.95;;
30299;SDS011;17110;52.602;12.998;2023-04-29T03:13:36;31.17;;;28.50;;
30299;SDS011;17110;52.602;12.998;2023-04-29T03:16:02;32.40;;;29.50;;
30299;SDS011;17110;52.602;12.998;2023-04-29T03:18:28;32.22;;;29.48;;
30299;SDS011;17110;52.602;12.998;2023-04-29T03:20:57;34.72;;;31.65;;
30299;SDS011;17110;52.602;12.998;2023-04-29T03:23:23;35.45;;;32.28;;
30299;SDS011;17110;52.602;12.998;2023-04-29T03:25:49;34.30;;;31.05;;
30299;SDS011;17110;52.602;12.998;2023-04-29T03:28:15;32.50;;;29.70;;
30299;SDS011;17110;52.602;12.998;2023-04-29T03:30:41;33.95;;;30.98;;
30299;SDS011;17110;52.602;12.998;2023-04-29T03:33:07;37.00;;;33.58;;
30299;SDS011;17110;52.602;12.998;2023-04-29T03:35:33;37.00;;;33.70;;
30299;SDS011;17110;52.602;12.998;2023-04-29T03:38:21;36.78;;;33.70;;
30299;SDS011;17110;52.602;12.998;2023-04-29T03:40:48;37.50;;;34.30;;
30299;SDS011;17110;52.602;12.998;2023-04-29T03:43:15;35.83;;;32.33;;
30299;SDS011;17110;52.602;12.998;2023-04-29T03:45:41;35.95;;;32.83;;
30299;SDS011;17110;52.602;12.998;2023-04-29T03:48:07;36.20;;;33.05;;
30299;SDS011;17110;52.602;12.998;2023-04-29T03:50:33;37.47;;;34.17;;
30299;SDS011;17110;52.602;12.998;2023-04-29T03:52:59;37.60;;;34.10;;
30299;SDS011;17110;52.602;12.998;2023-04-29T03:55:27;38.58;;;35.15;;
30299;SDS011;17110;52.602;12.998;2023-04-29T03:57:53;35.60;;;32.38;;
30299;SDS011;17110;52.602;12.998;2023-04-29T04:00:19;37.05;;;33.67;;
30299;SDS011;17110;52.602;12.998;2023-04-29T04:02:51;37.42;;;34.13;;
30299;SDS011;17110;52.602;12.998;2023-04-29T04:05:16;35.72;;;32.65;;
30299;SDS011;17110;52.602;12.998;2023-04-29T04:07:47;38.63;;;34.90;;
30299;SDS011;17110;52.602;12.998;2023-04-29T04:10:34;41.65;;;38.00;;
30299;SDS011;17110;52.602;12.998;2023-04-29T04:13:03;42.90;;;38.90;;
30299;SDS011;17110;52.602;12.998;2023-04-29T04:15:30;45.72;;;41.55;;
30299;SDS011;17110;52.602;12.998;2023-04-29T04:17:58;45.78;;;41.65;;
30299;SDS011;17110;52.602;12.998;2023-04-29T04:20:24;44.70;;;40.47;;
30299;SDS011;17110;52.602;12.998;2023-04-29T04:22:50;47.45;;;42.85;;
30299;SDS011;17110;52.602;12.998;2023-04-29T04:25:23;47.97;;;43.55;;
30299;SDS011;17110;52.602;12.998;2023-04-29T04:27:51;49.17;;;44.65;;
30299;SDS011;17110;52.602;12.998;2023-04-29T04:30:37;48.17;;;43.63;;
30299;SDS011;17110;52.602;12.998;2023-04-29T04:33:03;47.22;;;43.03;;
30299;SDS011;17110;52.602;12.998;2023-04-29T04:35:30;43.78;;;39.92;;
30299;SDS011;17110;52.602;12.998;2023-04-29T04:37:56;48.83;;;44.42;;
30299;SDS011;17110;52.602;12.998;2023-04-29T04:40:22;51.60;;;46.38;;
30299;SDS011;17110;52.602;12.998;2023-04-29T04:43:17;51.22;;;46.25;;
30299;SDS011;17110;52.602;12.998;2023-04-29T04:45:43;50.72;;;45.80;;
30299;SDS011;17110;52.602;12.998;2023-04-29T04:48:09;55.35;;;50.05;;
30299;SDS011;17110;52.602;12.998;2023-04-29T04:50:37;52.42;;;47.38;;
30299;SDS011;17110;52.602;12.998;2023-04-29T04:53:03;50.80;;;45.97;;
30299;SDS011;17110;52.602;12.998;2023-04-29T04:55:51;51.20;;;45.85;;
30299;SDS011;17110;52.602;12.998;2023-04-29T04:58:26;47.38;;;42.85;;
30299;SDS011;17110;52.602;12.998;2023-04-29T05:00:51;50.05;;;45.42;;
30299;SDS011;17110;52.602;12.998;2023-04-29T05:03:18;52.53;;;47.15;;
30299;SDS011;17110;52.602;12.998;2023-04-29T05:05:44;51.72;;;46.72;;
30299;SDS011;17110;52.602;12.998;2023-04-29T05:08:10;51.95;;;46.95;;
30299;SDS011;17110;52.602;12.998;2023-04-29T05:10:40;49.83;;;45.13;;
30299;SDS011;17110;52.602;12.998;2023-04-29T05:13:06;52.53;;;47.53;;
30299;SDS011;17110;52.602;12.998;2023-04-29T05:15:35;48.65;;;44.08;;
30299;SDS011;17110;52.602;12.998;2023-04-29T05:18:01;48.13;;;43.47;;
30299;SDS011;17110;52.602;12.998;2023-04-29T05:20:28;48.97;;;44.17;;
30299;SDS011;17110;52.602;12.998;2023-04-29T05:22:54;47.60;;;43.10;;
30299;SDS011;17110;52.602;12.998;2023-04-29T05:25:21;47.67;;;42.97;;
30299;SDS011;17110;52.602;12.998;2023-04-29T05:27:47;45.92;;;41.42;;
30299;SDS011;17110;52.602;12.998;2023-04-29T05:30:16;45.65;;;41.38;;
30299;SDS011;17110;52.602;12.998;2023-04-29T05:32:43;44.97;;;40.88;;
30299;SDS011;17110;52.602;12.998;2023-04-29T05:35:12;44.25;;;39.88;;
30299;SDS011;17110;52.602;12.998;2023-04-29T05:37:38;43.78;;;39.55;;
30299;SDS011;17110;52.602;12.998;2023-04-29T05:40:19;44.38;;;40.08;;
30299;SDS011;17110;52.602;12.998;2023-04-29T05:42:45;41.05;;;37.25;;
30299;SDS011;17110;52.602;12.998;2023-04-29T05:45:11;41.42;;;37.53;;
30299;SDS011;17110;52.602;12.998;2023-04-29T05:47:37;43.17;;;39.05;;
30299;SDS011;17110;52.602;12.998;2023-04-29T05:50:06;39.85;;;36.08;;
30299;SDS011;17110;52.602;12.998;2023-04-29T05:52:32;40.15;;;36.20;;
30299;SDS011;17110;52.602;12.998;2023-04-29T05:54:58;39.92;;;36.20;;
30299;SDS011;17110;52.602;12.998;2023-04-29T05:57:23;38.33;;;34.63;;
30299;SDS011;17110;52.602;12.998;2023-04-29T05:59:49;36.20;;;32.85;;
30299;SDS011;17110;52.602;12.998;2023-04-29T06:02:15;34.60;;;31.30;;
30299;SDS011;17110;52.602;12.998;2023-04-29T06:04:41;36.10;;;32.63;;
30299;SDS011;17110;52.602;12.998;2023-04-29T06:07:14;37.05;;;33.15;;
30299;SDS011;17110;52.602;12.998;2023-04-29T06:09:47;37.13;;;33.33;;
30299;SDS011;17110;52.602;12.998;2023-04-29T06:12:13;37.78;;;33.67;;
30299;SDS011;17110;52.602;12.998;2023-04-29T06:14:41;37.17;;;33.22;;
30299;SDS011;17110;52.602;12.998;2023-04-29T06:17:07;38.78;;;34.70;;
30299;SDS011;17110;52.602;12.998;2023-04-29T06:19:33;39.53;;;35.58;;
30299;SDS011;17110;52.602;12.998;2023-04-29T06:21:59;39.95;;;35.72;;
30299;SDS011;17110;52.602;12.998;2023-04-29T06:24:26;41.25;;;37.05;;
30299;SDS011;17110;52.602;12.998;2023-04-29T06:26:52;43.72;;;39.13;;
30299;SDS011;17110;52.602;12.998;2023-04-29T06:29:18;42.40;;;38.10;;
30299;SDS011;17110;52.602;12.998;2023-04-29T06:31:44;42.83;;;38.20;;
30299;SDS011;17110;52.602;12.998;2023-04-29T06:34:10;40.63;;;36.63;;
30299;SDS011;17110;52.602;12.998;2023-04-29T06:36:46;40.13;;;36.10;;
30299;SDS011;17110;52.602;12.998;2023-04-29T06:39:33;40.75;;;36.75;;
30299;SDS011;17110;52.602;12.998;2023-04-29T06:42:25;39.67;;;35.67;;
30299;SDS011;17110;52.602;12.998;2023-04-29T06:45:11;37.40;;;33.72;;
30299;SDS011;17110;52.602;12.998;2023-04-29T06:47:39;34.35;;;31.15;;
30299;SDS011;17110;52.602;12.998;2023-04-29T06:52:35;33.33;;;29.95;;
30299;SDS011;17110;52.602;12.998;2023-04-29T06:55:04;31.95;;;28.98;;
30299;SDS011;17110;52.602;12.998;2023-04-29T06:57:30;33.03;;;30.00;;
30299;SDS011;17110;52.602;12.998;2023-04-29T06:59:55;30.60;;;27.52;;
30299;SDS011;17110;52.602;12.998;2023-04-29T07:02:23;28.77;;;26.15;;
30299;SDS011;17110;52.602;12.998;2023-04-29T07:04:49;29.55;;;26.85;;
30299;SDS011;17110;52.602;12.998;2023-04-29T07:07:14;26.65;;;24.35;;
30299;SDS011;17110;52.602;12.998;2023-04-29T07:09:40;27.05;;;24.70;;
30299;SDS011;17110;52.602;12.998;2023-04-29T07:12:08;25.80;;;23.50;;
30299;SDS011;17110;52.602;12.998;2023-04-29T07:14:34;23.63;;;21.50;;
30299;SDS011;17110;52.602;12.998;2023-04-29T07:16:59;22.25;;;20.35;;
30299;SDS011;17110;52.602;12.998;2023-04-29T07:19:25;23.50;;;21.55;;
30299;SDS011;17110;52.602;12.998;2023-04-29T07:21:51;21.35;;;19.55;;
30299;SDS011;17110;52.602;12.998;2023-04-29T07:24:17;21.23;;;19.58;;
30299;SDS011;17110;52.602;12.998;2023-04-29T07:26:45;20.88;;;19.05;;
30299;SDS011;17110;52.602;12.998;2023-04-29T07:29:15;19.33;;;17.85;;
30299;SDS011;17110;52.602;12.998;2023-04-29T07:31:40;18.40;;;17.00;;
30299;SDS011;17110;52.602;12.998;2023-04-29T07:34:06;18.65;;;17.15;;
30299;SDS011;17110;52.602;12.998;2023-04-29T07:36:32;17.83;;;16.33;;
30299;SDS011;17110;52.602;12.998;2023-04-29T07:38:58;17.38;;;15.98;;
30299;SDS011;17110;52.602;12.998;2023-04-29T07:41:24;16.67;;;15.38;;
30299;SDS011;17110;52.602;12.998;2023-04-29T07:43:50;18.38;;;16.83;;
30299;SDS011;17110;52.602;12.998;2023-04-29T07:46:17;18.33;;;16.83;;
30299;SDS011;17110;52.602;12.998;2023-04-29T07:48:43;18.13;;;16.63;;
30299;SDS011;17110;52.602;12.998;2023-04-29T07:51:11;17.58;;;16.17;;
30299;SDS011;17110;52.602;12.998;2023-04-29T07:53:37;17.02;;;15.45;;
30299;SDS011;17110;52.602;12.998;2023-04-29T07:56:04;18.40;;;16.92;;
30299;SDS011;17110;52.602;12.998;2023-04-29T07:58:30;18.27;;;16.80;;
30299;SDS011;17110;52.602;12.998;2023-04-29T08:00:56;19.02;;;17.33;;
30299;SDS011;17110;52.602;12.998;2023-04-29T08:03:23;18.88;;;17.38;;
30299;SDS011;17110;52.602;12.998;2023-04-29T08:05:51;21.47;;;19.20;;
30299;SDS011;17110;52.602;12.998;2023-04-29T08:08:17;21.23;;;19.08;;
30299;SDS011;17110;52.602;12.998;2023-04-29T08:10:42;21.50;;;19.70;;
30299;SDS011;17110;52.602;12.998;2023-04-29T08:13:09;22.25;;;20.33;;
30299;SDS011;17110;52.602;12.998;2023-04-29T08:15:35;21.92;;;19.83;;
30299;SDS011;17110;52.602;12.998;2023-04-29T08:18:00;26.40;;;23.90;;
30299;SDS011;17110;52.602;12.998;2023-04-29T08:20:27;27.25;;;24.70;;
30299;SDS011;17110;52.602;12.998;2023-04-29T08:22:53;31.83;;;28.73;;
30299;SDS011;17110;52.602;12.998;2023-04-29T08:25:18;37.33;;;33.63;;
30299;SDS011;17110;52.602;12.998;2023-04-29T08:27:44;39.63;;;35.83;;
30299;SDS011;17110;52.602;12.998;2023-04-29T08:30:10;40.30;;;36.20;;
30299;SDS011;17110;52.602;12.998;2023-04-29T08:32:36;39.50;;;35.53;;
30299;SDS011;17110;52.602;12.998;2023-04-29T08:35:02;39.67;;;35.80;;
30299;SDS011;17110;52.602;12.998;2023-04-29T08:37:29;39.70;;;35.67;;
30299;SDS011;17110;52.602;12.998;2023-04-29T08:39:55;41.30;;;36.25;;
30299;SDS011;17110;52.602;12.998;2023-04-29T08:42:31;38.45;;;34.65;;
30299;SDS011;17110;52.602;12.998;2023-04-29T08:44:58;39.78;;;35.92;;
30299;SDS011;17110;52.602;12.998;2023-04-29T08:47:24;37.92;;;34.13;;
30299;SDS011;17110;52.602;12.998;2023-04-29T08:49:52;36.97;;;33.38;;
30299;SDS011;17110;52.602;12.998;2023-04-29T08:52:18;38.65;;;34.95;;
30299;SDS011;17110;52.602;12.998;2023-04-29T08:54:45;36.88;;;33.38;;
30299;SDS011;17110;52.602;12.998;2023-04-29T08:57:11;37.80;;;34.13;;
30299;SDS011;17110;52.602;12.998;2023-04-29T08:59:36;38.05;;;34.35;;
30299;SDS011;17110;52.602;12.998;2023-04-29T09:02:02;39.05;;;34.88;;
30299;SDS011;17110;52.602;12.998;2023-04-29T09:04:32;37.13;;;33.60;;
30299;SDS011;17110;52.602;12.998;2023-04-29T09:07:05;37.60;;;34.05;;
30299;SDS011;17110;52.602;12.998;2023-04-29T09:09:32;39.42;;;35.47;;
30299;SDS011;17110;52.602;12.998;2023-04-29T09:12:00;39.03;;;35.13;;
30299;SDS011;17110;52.602;12.998;2023-04-29T09:14:25;39.22;;;35.53;;
30299;SDS011;17110;52.602;12.998;2023-04-29T09:16:54;39.78;;;35.58;;
30299;SDS011;17110;52.602;12.998;2023-04-29T09:19:29;39.78;;;36.17;;
30299;SDS011;17110;52.602;12.998;2023-04-29T09:21:56;40.40;;;36.42;;
30299;SDS011;17110;52.602;12.998;2023-04-29T09:24:23;39.78;;;35.67;;
30299;SDS011;17110;52.602;12.998;2023-04-29T09:26:49;38.55;;;34.85;;
30299;SDS011;17110;52.602;12.998;2023-04-29T09:29:17;40.75;;;36.75;;
30299;SDS011;17110;52.602;12.998;2023-04-29T09:31:44;40.22;;;36.35;;
30299;SDS011;17110;52.602;12.998;2023-04-29T09:34:11;42.47;;;38.38;;
30299;SDS011;17110;52.602;12.998;2023-04-29T09:36:38;40.83;;;36.55;;
30299;SDS011;17110;52.602;12.998;2023-04-29T09:39:05;40.38;;;36.15;;
30299;SDS011;17110;52.602;12.998;2023-04-29T09:41:31;41.70;;;37.47;;
30299;SDS011;17110;52.602;12.998;2023-04-29T09:44:01;41.03;;;36.65;;
30299;SDS011;17110;52.602;12.998;2023-04-29T09:46:29;41.22;;;37.15;;
30299;SDS011;17110;52.602;12.998;2023-04-29T09:48:54;42.38;;;37.72;;
30299;SDS011;17110;52.602;12.998;2023-04-29T09:51:20;39.33;;;35.55;;
30299;SDS011;17110;52.602;12.998;2023-04-29T09:53:46;40.83;;;36.80;;
30299;SDS011;17110;52.602;12.998;2023-04-29T09:56:11;41.35;;;37.00;;
30299;SDS011;17110;52.602;12.998;2023-04-29T09:58:43;38.45;;;34.50;;
30299;SDS011;17110;52.602;12.998;2023-04-29T10:01:15;41.28;;;37.13;;
30299;SDS011;17110;52.602;12.998;2023-04-29T10:03:44;40.20;;;36.40;;
30299;SDS011;17110;52.602;12.998;2023-04-29T10:06:11;39.47;;;35.35;;
30299;SDS011;17110;52.602;12.998;2023-04-29T10:08:38;39.45;;;35.50;;
30299;SDS011;17110;52.602;12.998;2023-04-29T10:11:04;38.10;;;34.33;;
30299;SDS011;17110;52.602;12.998;2023-04-29T10:13:30;36.10;;;32.83;;
30299;SDS011;17110;52.602;12.998;2023-04-29T10:16:01;36.95;;;33.22;;
30299;SDS011;17110;52.602;12.998;2023-04-29T10:18:35;36.60;;;32.45;;
30299;SDS011;17110;52.602;12.998;2023-04-29T10:21:07;36.53;;;33.05;;
30299;SDS011;17110;52.602;12.998;2023-04-29T10:23:33;38.80;;;35.27;;
30299;SDS011;17110;52.602;12.998;2023-04-29T10:26:01;37.15;;;33.58;;
30299;SDS011;17110;52.602;12.998;2023-04-29T10:28:29;35.72;;;32.08;;
30299;SDS011;17110;52.602;12.998;2023-04-29T10:30:55;35.50;;;32.20;;
30299;SDS011;17110;52.602;12.998;2023-04-29T10:33:23;33.45;;;30.40;;
30299;SDS011;17110;52.602;12.998;2023-04-29T10:35:53;33.47;;;30.17;;
30299;SDS011;17110;52.602;12.998;2023-04-29T10:38:23;30.70;;;27.92;;
30299;SDS011;17110;52.602;12.998;2023-04-29T10:40:52;28.77;;;26.17;;
30299;SDS011;17110;52.602;12.998;2023-04-29T10:43:21;27.50;;;24.83;;
30299;SDS011;17110;52.602;12.998;2023-04-29T10:45:48;27.95;;;25.17;;
30299;SDS011;17110;52.602;12.998;2023-04-29T10:48:14;25.60;;;23.25;;
30299;SDS011;17110;52.602;12.998;2023-04-29T10:53:27;25.33;;;22.92;;
30299;SDS011;17110;52.602;12.998;2023-04-29T10:55:53;24.77;;;22.38;;
30299;SDS011;17110;52.602;12.998;2023-04-29T10:58:32;23.08;;;21.15;;
30299;SDS011;17110;52.602;12.998;2023-04-29T11:00:59;23.83;;;21.42;;
30299;SDS011;17110;52.602;12.998;2023-04-29T11:06:13;23.38;;;21.13;;
30299;SDS011;17110;52.602;12.998;2023-04-29T11:08:40;21.50;;;19.60;;
30299;SDS011;17110;52.602;12.998;2023-04-29T11:11:06;22.45;;;20.38;;
30299;SDS011;17110;52.602;12.998;2023-04-29T11:13:32;22.83;;;20.55;;
30299;SDS011;17110;52.602;12.998;2023-04-29T11:16:03;22.67;;;20.45;;
30299;SDS011;17110;52.602;12.998;2023-04-29T11:18:29;24.33;;;21.27;;
30299;SDS011;17110;52.602;12.998;2023-04-29T11:21:10;22.52;;;20.48;;
30299;SDS011;17110;52.602;12.998;2023-04-29T11:23:37;22.25;;;19.95;;
30299;SDS011;17110;52.602;12.998;2023-04-29T11:26:04;22.85;;;20.85;;
30299;SDS011;17110;52.602;12.998;2023-04-29T11:28:30;23.17;;;21.13;;
30299;SDS011;17110;52.602;12.998;2023-04-29T11:30:57;21.63;;;19.73;;
30299;SDS011;17110;52.602;12.998;2023-04-29T11:33:24;26.10;;;22.02;;
30299;SDS011;17110;52.602;12.998;2023-04-29T11:35:51;23.25;;;21.20;;
30299;SDS011;17110;52.602;12.998;2023-04-29T11:38:17;23.05;;;20.67;;
30299;SDS011;17110;52.602;12.998;2023-04-29T11:40:47;23.38;;;21.20;;
30299;SDS011;17110;52.602;12.998;2023-04-29T11:43:16;22.65;;;20.55;;
30299;SDS011;17110;52.602;12.998;2023-04-29T11:45:43;21.27;;;19.45;;
30299;SDS011;17110;52.602;12.998;2023-04-29T11:48:09;21.63;;;19.52;;
30299;SDS011;17110;52.602;12.998;2023-04-29T11:50:41;19.95;;;17.98;;
30299;SDS011;17110;52.602;12.998;2023-04-29T11:53:07;19.02;;;17.17;;
30299;SDS011;17110;52.602;12.998;2023-04-29T11:55:32;15.73;;;14.23;;
30299;SDS011;17110;52.602;12.998;2023-04-29T11:57:58;16.33;;;14.65;;
30299;SDS011;17110;52.602;12.998;2023-04-29T12:00:25;16.15;;;14.60;;
30299;SDS011;17110;52.602;12.998;2023-04-29T12:02:51;16.60;;;14.90;;
30299;SDS011;17110;52.602;12.998;2023-04-29T12:05:17;14.93;;;13.50;;
30299;SDS011;17110;52.602;12.998;2023-04-29T12:07:42;13.98;;;12.52;;
30299;SDS011;17110;52.602;12.998;2023-04-29T12:10:08;12.27;;;11.18;;
30299;SDS011;17110;52.602;12.998;2023-04-29T12:12:34;13.38;;;12.07;;
30299;SDS011;17110;52.602;12.998;2023-04-29T12:15:00;12.40;;;11.15;;
30299;SDS011;17110;52.602;12.998;2023-04-29T12:17:27;12.27;;;11.20;;
30299;SDS011;17110;52.602;12.998;2023-04-29T12:19:53;11.43;;;10.32;;
30299;SDS011;17110;52.602;12.998;2023-04-29T12:22:19;10.43;;;9.45;;
30299;SDS011;17110;52.602;12.998;2023-04-29T12:24:45;9.68;;;8.70;;
30299;SDS011;17110;52.602;12.998;2023-04-29T12:27:11;8.80;;;8.10;;
30299;SDS011;17110;52.602;12.998;2023-04-29T12:29:37;8.70;;;8.00;;
30299;SDS011;17110;52.602;12.998;2023-04-29T12:32:03;8.85;;;8.02;;
30299;SDS011;17110;52.602;12.998;2023-04-29T12:34:31;8.75;;;7.40;;
30299;SDS011;17110;52.602;12.998;2023-04-29T12:36:57;8.55;;;7.75;;
30299;SDS011;17110;52.602;12.998;2023-04-29T12:39:24;9.52;;;8.52;;
30299;SDS011;17110;52.602;12.998;2023-04-29T12:41:56;10.75;;;9.70;;
30299;SDS011;17110;52.602;12.998;2023-04-29T12:44:22;11.27;;;10.18;;
30299;SDS011;17110;52.602;12.998;2023-04-29T12:46:48;13.88;;;12.57;;
30299;SDS011;17110;52.602;12.998;2023-04-29T12:49:14;15.75;;;14.07;;
30299;SDS011;17110;52.602;12.998;2023-04-29T12:51:43;14.68;;;13.18;;
30299;SDS011;17110;52.602;12.998;2023-04-29T12:54:09;14.52;;;13.02;;
30299;SDS011;17110;52.602;12.998;2023-04-29T12:56:36;14.60;;;13.07;;
30299;SDS011;17110;52.602;12.998;2023-04-29T12:59:05;14.63;;;13.25;;
30299;SDS011;17110;52.602;12.998;2023-04-29T13:01:32;15.88;;;13.20;;
30299;SDS011;17110;52.602;12.998;2023-04-29T13:03:57;15.23;;;13.25;;
30299;SDS011;17110;52.602;12.998;2023-04-29T13:06:23;14.90;;;13.50;;
30299;SDS011;17110;52.602;12.998;2023-04-29T13:08:50;13.48;;;12.15;;
30299;SDS011;17110;52.602;12.998;2023-04-29T13:11:16;14.18;;;12.65;;
30299;SDS011;17110;52.602;12.998;2023-04-29T13:13:41;13.90;;;12.43;;
30299;SDS011;17110;52.602;12.998;2023-04-29T13:16:07;13.02;;;11.20;;
30299;SDS011;17110;52.602;12.998;2023-04-29T13:18:33;12.25;;;10.88;;
30299;SDS011;17110;52.602;12.998;2023-04-29T13:20:58;11.23;;;10.13;;
30299;SDS011;17110;52.602;12.998;2023-04-29T13:23:24;12.93;;;10.38;;
30299;SDS011;17110;52.602;12.998;2023-04-29T13:25:51;10.82;;;9.70;;
30299;SDS011;17110;52.602;12.998;2023-04-29T13:28:17;12.98;;;10.30;;
30299;SDS011;17110;52.602;12.998;2023-04-29T13:30:43;13.75;;;11.07;;
30299;SDS011;17110;52.602;12.998;2023-04-29T13:33:08;15.93;;;11.43;;
30299;SDS011;17110;52.602;12.998;2023-04-29T13:35:34;11.85;;;10.68;;
30299;SDS011;17110;52.602;12.998;2023-04-29T13:38:00;12.05;;;10.82;;
30299;SDS011;17110;52.602;12.998;2023-04-29T13:40:26;12.40;;;10.75;;
30299;SDS011;17110;52.602;12.998;2023-04-29T13:42:53;11.50;;;10.30;;
30299;SDS011;17110;52.602;12.998;2023-04-29T13:45:19;12.40;;;11.15;;
30299;SDS011;17110;52.602;12.998;2023-04-29T13:47:44;11.20;;;10.10;;
30299;SDS011;17110;52.602;12.998;2023-04-29T13:50:10;11.82;;;10.30;;
30299;SDS011;17110;52.602;12.998;2023-04-29T13:52:36;12.82;;;11.43;;
30299;SDS011;17110;52.602;12.998;2023-04-29T13:55:01;11.55;;;10.25;;
30299;SDS011;17110;52.602;12.998;2023-04-29T13:57:27;10.73;;;9.63;;
30299;SDS011;17110;52.602;12.998;2023-04-29T13:59:54;12.25;;;10.48;;
30299;SDS011;17110;52.602;12.998;2023-04-29T14:02:20;10.63;;;9.60;;
30299;SDS011;17110;52.602;12.998;2023-04-29T14:04:45;10.57;;;9.45;;
30299;SDS011;17110;52.602;12.998;2023-04-29T14:07:11;10.73;;;8.80;;
30299;SDS011;17110;52.602;12.998;2023-04-29T14:09:37;12.27;;;9.23;;
30299;SDS011;17110;52.602;12.998;2023-04-29T14:12:03;9.45;;;8.10;;
30299;SDS011;17110;52.602;12.998;2023-04-29T14:14:29;13.15;;;9.52;;
30299;SDS011;17110;52.602;12.998;2023-04-29T14:16:56;10.60;;;8.48;;
30299;SDS011;17110;52.602;12.998;2023-04-29T14:19:21;12.75;;;10.13;;
30299;SDS011;17110;52.602;12.998;2023-04-29T14:21:47;12.73;;;9.95;;
30299;SDS011;17110;52.602;12.998;2023-04-29T14:24:13;10.45;;;9.35;;
30299;SDS011;17110;52.602;12.998;2023-04-29T14:26:38;10.60;;;9.25;;
30299;SDS011;17110;52.602;12.998;2023-04-29T14:29:04;9.90;;;8.38;;
30299;SDS011;17110;52.602;12.998;2023-04-29T14:31:32;9.05;;;8.10;;
30299;SDS011;17110;52.602;12.998;2023-04-29T14:34:00;10.52;;;8.50;;
30299;SDS011;17110;52.602;12.998;2023-04-29T14:36:26;10.23;;;8.85;;
30299;SDS011;17110;52.602;12.998;2023-04-29T14:38:51;12.02;;;9.55;;
30299;SDS011;17110;52.602;12.998;2023-04-29T14:41:17;8.90;;;8.10;;
30299;SDS011;17110;52.602;12.998;2023-04-29T14:43:43;11.52;;;8.27;;
30299;SDS011;17110;52.602;12.998;2023-04-29T14:46:08;11.30;;;8.43;;